Terminal Aerodrome Forecast
Issued by NWS Pittsburgh, PA

Current Version | Previous Version | Graphics & Text | Print | Product List | Glossary On
Versions: 1 2 3 4 5 6 7 8 9 10 11 12 13 14 15 16 17 18 19 20 21 22 23 24 25
197
FTUS41 KPBZ 052103 AAA
TAFPIT
TAF AMD
KPIT 052103Z 0521/0624 32008KT P6SM SCT045
     FM060000 VRB03KT P6SM SCT200
     FM060600 20004KT P6SM BKN040
     FM061600 24010KT P6SM SCT035=

USA.gov is the U.S. government's official web portal to all federal, state and local government web resources and services.